Current Weather



TAF Data Links

METAR Data Links

Latest METAR/TAF Data


Available data for KAUS from the past 2 hours
AUSTIN, TX
Metar
KAUS 211053Z 00000KT 10SM FEW013 23/22 A3006 RMK AO2 SLP166 T02330222

10:53 UTC

Wind: 0° 0kt

Visibility: 10 SM

Sky: FEW 1300 ft

Temp: 23 deg C / 73.4 deg F

Dewpoint: 22 deg C / 71.6 deg F

Pressure: 30.06 inHg

TAF
KAUS 210831Z 2109/2212 00000KT P6SM BKN013 BKN020 FM211500 15010KT P6SM SCT060 FM220900 18003KT P6SM OVC015


Available data for KEDC from the past 2 hours
AUSTIN EXEC, TX
Metar
KEDC 211055Z AUTO 00000KT 10SM BKN012 24/24 A3007 RMK AO2

10:55 UTC

Wind: 0° 0kt

Visibility: 10 SM

Sky: BKN 1200 ft

Temp: 24 deg C / 75.2 deg F

Dewpoint: 24 deg C / 75.2 deg F

Pressure: 30.07 inHg



Available data for KRYW from the past 2 hours
LAGO VISTA, TX
Metar
KRYW 211055Z AUTO 20004KT 10SM BKN011 25/23 A3010 RMK AO2 LTG DSNT W T02510229

10:55 UTC

Wind: 200° 4kt

Visibility: 10 SM

Sky: BKN 1100 ft

Temp: 25 deg C / 77 deg F

Dewpoint: 23 deg C / 73.4 deg F

Pressure: 30.1 inHg